Terminal Aerodrome Forecast
Issued by NWS

Home | Current Version | Previous Version | Text Only | Print | Product List | Glossary Off
Versions: 1 2 3 4 5 6 7 8 9 10 11 12 13 14 15 16 17 18

000
FTUS43 KMPX 240520
TAFRNH
TAF
KRNH 240520Z 2406/2506 03007KT P6SM BKN030 OVC080
     FM240800 03007KT P6SM BKN015 OVC030
     FM241600 02006KT P6SM BKN020
     FM242000 04006KT P6SM BKN050=

USA.gov is the U.S. government's official web portal to all federal, state and local government web resources and services.